Cielo Di Iyo — HOET — position and weather

sailwx.info

Track history (hours):
 
Tides and Currents Weather Stations Pressure Air Temp Water Temp Dewpoint Dewpoint Depression Visibility Wind Speed Wind Dir Waves Ship Positions

Cielo Di Iyo

Last reported at 2017-Jun-08 03:29 UTC. Time now 2017-Jun-27 03:46 UTC.
Position N 39°54' E 025°59'.
Warning: this ship's position is 19 days out of date.

Length 183 m; draft 10.5 m.

Type: Cargo ship. MMSI: 372771000.

Date/timePositionNaut miles runAvg speedWind from/ knotsBaromVisibWave heightAir tempDewpointWater temp
2017-Jun-08 03:29N 39°54' E 025°59'  
2017-Jun-05 20:53N 36°21' E 015°31'512.5
2017-Jun-05 20:30N 36°21' E 015°25'612.4
2017-Jun-05 20:00N 36°21' E 015°17'612.3
2017-Jun-05 19:30N 36°21' E 015°10'612.5
2017-Jun-05 19:00N 36°21' E 015°02'612.7
2017-Jun-05 18:30N 36°21' E 014°54'612.7
2017-Jun-05 18:00N 36°21' E 014°46'612.4
2017-Jun-05 17:30N 36°21' E 014°39'612.2
2017-Jun-05 17:00N 36°21' E 014°31'612.0
2017-Jun-05 16:30N 36°21' E 014°24'611.9
2017-Jun-05 16:00N 36°21' E 014°16'611.8
2017-Jun-05 15:30N 36°21' E 014°09'611.9
2017-Jun-05 15:00N 36°22' E 014°01'1211.8
2017-Jun-05 14:00N 36°26' E 013°48'612.0
2017-Jun-05 13:30N 36°28' E 013°41'611.9
2017-Jun-05 13:00N 36°31' E 013°34'611.9
2017-Jun-05 12:30N 36°34' E 013°28'612.0
2017-Jun-05 12:00N 36°36' E 013°21'611.8
2017-Jun-05 11:30N 36°38' E 013°14'611.5
2017-Jun-05 11:00N 36°41' E 013°07'611.4
2017-Jun-05 10:30N 36°43' E 013°01'611.5
2017-Jun-05 10:00N 36°45' E 012°54'611.9
2017-Jun-05 09:30N 36°48' E 012°48'612.4
2017-Jun-05 09:00N 36°50' E 012°41'713.1
2017-Jun-05 08:30N 36°53' E 012°33'612.7
2017-Jun-05 08:00N 36°56' E 012°26'612.5
2017-Jun-05 07:29N 36°58' E 012°19'11612.3
2017-Jun-04 22:08N 37°35' E 010°01'212.9
2017-Jun-04 21:58N 37°35' E 009°58'612.7
2017-Jun-04 21:30N 37°35' E 009°51'2312.4
2017-Jun-04 19:39N 37°35' E 009°22'212.2
2017-Jun-04 19:29N 37°35' E 009°19'812.2
2017-Jun-04 18:51N 37°36' E 009°09'512.3
2017-Jun-04 18:27N 37°36' E 009°03'612.1
2017-Jun-04 17:56N 37°36' E 008°55'612.1
2017-Jun-04 17:24N 37°35' E 008°47'2412.1
2017-Jun-04 15:27N 37°32' E 008°18'2212.0
2017-Jun-04 13:38N 37°29' E 007°51'312.2
2017-Jun-04 13:25N 37°29' E 007°47'612.3
2017-Jun-04 12:56N 37°28' E 007°40'812.2
2017-Jun-04 12:18N 37°26' E 007°30'412.2
2017-Jun-04 12:00N 37°26' E 007°26'612.0
2017-Jun-04 11:29N 37°25' E 007°18'1111.8
2017-Jun-04 10:31N 37°24' E 007°04'011.8
2017-Jun-04 10:28N 37°24' E 007°03'611.7
2017-Jun-04 09:58N 37°23' E 006°56'611.7
2017-Jun-04 09:28N 37°22' E 006°49'612.2
2017-Jun-04 08:59N 37°21' E 006°41'1212.3
2017-Jun-04 08:03N 37°19' E 006°27'612.2
2017-Jun-04 07:35N 37°19' E 006°20'612.1
2017-Jun-04 07:04N 37°18' E 006°12'112.0
2017-Jun-04 07:00N 37°18' E 006°11'4312.2
2017-Jun-04 03:26N 37°12' E 005°17'512.0
2017-Jun-04 02:59N 37°11' E 005°10'712.0
2017-Jun-04 02:27N 37°10' E 005°02'712.2
2017-Jun-04 01:50N 37°09' E 004°53'612.5
2017-Jun-04 01:23N 37°08' E 004°46'512.5
2017-Jun-04 00:57N 37°07' E 004°39'812.3
2017-Jun-04 00:19N 37°06' E 004°30'412.2
2017-Jun-03 23:58N 37°06' E 004°24'6412.6
2017-Jun-03 18:53N 36°57' E 003°05'512.8
2017-Jun-03 18:30N 36°56' E 002°59'1312.5
2017-Jun-03 17:28N 36°55' E 002°43'612.1
2017-Jun-03 16:59N 36°54' E 002°35'611.8
2017-Jun-03 16:29N 36°53' E 002°28'611.5
2017-Jun-03 16:00N 36°52' E 002°21'510.9
2017-Jun-03 15:30N 36°52' E 002°14'510.8
2017-Jun-03 15:00N 36°51' E 002°08'1312.1
2017-Jun-03 13:57N 36°49' E 001°52'13712.2
2017-Jun-03 02:43N 36°30' W 000°57'210.8
2017-Jun-03 02:29N 36°30' W 001°00'511.1
2017-Jun-03 02:00N 36°29' W 001°07'19712.3
2017-Jun-02 09:58N 36°01' W 005°09'612.5
2017-Jun-02 09:30N 35°60' W 005°16'612.6
2017-Jun-02 09:00N 35°58' W 005°24'2610.4
2017-Jun-02 06:31N 35°53' W 005°55'010.3
2017-Jun-02 06:30N 35°53' W 005°55'55010.8
2017-May-31 03:26N 29°35' W 013°51'4810.7
2017-May-30 22:56N 29°02' W 014°30'2410.7
2017-May-30 20:42N 28°40' W 014°41'511.0
2017-May-30 20:17N 28°36' W 014°43'310.8
2017-May-30 19:59N 28°33' W 014°44'510.8
2017-May-30 19:30N 28°28' W 014°46'511.0
2017-May-30 19:00N 28°23' W 014°49'611.1
2017-May-30 18:30N 28°18' W 014°51'611.0
2017-May-30 18:00N 28°12' W 014°53'611.5
2017-May-30 17:30N 28°07' W 014°55'611.4
2017-May-30 17:00N 28°02' W 014°57'611.2
2017-May-30 16:30N 27°56' W 014°60'611.3
2017-May-30 16:00N 27°51' W 015°02'611.1
2017-May-30 15:30N 27°46' W 015°04'611.1
2017-May-30 14:58N 27°41' W 015°07'610.7
2017-May-30 14:27N 27°36' W 015°10'  
Track history (hours):
 
Tides and Currents Weather Stations Pressure Air Temp Water Temp Dewpoint Dewpoint Depression Visibility Wind Speed Wind Dir Waves Ship Positions

Cielo Di Iyo

Last reported at 2017-Jun-08 03:29 UTC. Time now 2017-Jun-27 03:46 UTC.
Position N 39°54' E 025°59'.
Warning: this ship's position is 19 days out of date.

Length 183 m; draft 10.5 m.

Type: Cargo ship. MMSI: 372771000.

Date/timePositionNaut miles runAvg speedWind from/ knotsBaromVisibWave heightAir tempDewpointWater temp
2017-Jun-08 03:29N 39°54' E 025°59'  
2017-Jun-05 20:53N 36°21' E 015°31'512.5
2017-Jun-05 20:30N 36°21' E 015°25'612.4
2017-Jun-05 20:00N 36°21' E 015°17'612.3
2017-Jun-05 19:30N 36°21' E 015°10'612.5
2017-Jun-05 19:00N 36°21' E 015°02'612.7
2017-Jun-05 18:30N 36°21' E 014°54'612.7
2017-Jun-05 18:00N 36°21' E 014°46'612.4
2017-Jun-05 17:30N 36°21' E 014°39'612.2
2017-Jun-05 17:00N 36°21' E 014°31'612.0
2017-Jun-05 16:30N 36°21' E 014°24'611.9
2017-Jun-05 16:00N 36°21' E 014°16'611.8
2017-Jun-05 15:30N 36°21' E 014°09'611.9
2017-Jun-05 15:00N 36°22' E 014°01'1211.8
2017-Jun-05 14:00N 36°26' E 013°48'612.0
2017-Jun-05 13:30N 36°28' E 013°41'611.9
2017-Jun-05 13:00N 36°31' E 013°34'611.9
2017-Jun-05 12:30N 36°34' E 013°28'612.0
2017-Jun-05 12:00N 36°36' E 013°21'611.8
2017-Jun-05 11:30N 36°38' E 013°14'611.5
2017-Jun-05 11:00N 36°41' E 013°07'611.4
2017-Jun-05 10:30N 36°43' E 013°01'611.5
2017-Jun-05 10:00N 36°45' E 012°54'611.9
2017-Jun-05 09:30N 36°48' E 012°48'612.4
2017-Jun-05 09:00N 36°50' E 012°41'713.1
2017-Jun-05 08:30N 36°53' E 012°33'612.7
2017-Jun-05 08:00N 36°56' E 012°26'612.5
2017-Jun-05 07:29N 36°58' E 012°19'11612.3
2017-Jun-04 22:08N 37°35' E 010°01'212.9
2017-Jun-04 21:58N 37°35' E 009°58'612.7
2017-Jun-04 21:30N 37°35' E 009°51'2312.4
2017-Jun-04 19:39N 37°35' E 009°22'212.2
2017-Jun-04 19:29N 37°35' E 009°19'812.2
2017-Jun-04 18:51N 37°36' E 009°09'512.3
2017-Jun-04 18:27N 37°36' E 009°03'612.1
2017-Jun-04 17:56N 37°36' E 008°55'612.1
2017-Jun-04 17:24N 37°35' E 008°47'2412.1
2017-Jun-04 15:27N 37°32' E 008°18'2212.0
2017-Jun-04 13:38N 37°29' E 007°51'312.2
2017-Jun-04 13:25N 37°29' E 007°47'612.3
2017-Jun-04 12:56N 37°28' E 007°40'812.2
2017-Jun-04 12:18N 37°26' E 007°30'412.2
2017-Jun-04 12:00N 37°26' E 007°26'612.0
2017-Jun-04 11:29N 37°25' E 007°18'1111.8
2017-Jun-04 10:31N 37°24' E 007°04'011.8
2017-Jun-04 10:28N 37°24' E 007°03'611.7
2017-Jun-04 09:58N 37°23' E 006°56'611.7
2017-Jun-04 09:28N 37°22' E 006°49'612.2
2017-Jun-04 08:59N 37°21' E 006°41'1212.3
2017-Jun-04 08:03N 37°19' E 006°27'612.2
2017-Jun-04 07:35N 37°19' E 006°20'612.1
2017-Jun-04 07:04N 37°18' E 006°12'112.0
2017-Jun-04 07:00N 37°18' E 006°11'4312.2
2017-Jun-04 03:26N 37°12' E 005°17'512.0
2017-Jun-04 02:59N 37°11' E 005°10'712.0
2017-Jun-04 02:27N 37°10' E 005°02'712.2
2017-Jun-04 01:50N 37°09' E 004°53'612.5
2017-Jun-04 01:23N 37°08' E 004°46'512.5
2017-Jun-04 00:57N 37°07' E 004°39'812.3
2017-Jun-04 00:19N 37°06' E 004°30'412.2
2017-Jun-03 23:58N 37°06' E 004°24'6412.6
2017-Jun-03 18:53N 36°57' E 003°05'512.8
2017-Jun-03 18:30N 36°56' E 002°59'1312.5
2017-Jun-03 17:28N 36°55' E 002°43'612.1
2017-Jun-03 16:59N 36°54' E 002°35'611.8
2017-Jun-03 16:29N 36°53' E 002°28'611.5
2017-Jun-03 16:00N 36°52' E 002°21'510.9
2017-Jun-03 15:30N 36°52' E 002°14'510.8
2017-Jun-03 15:00N 36°51' E 002°08'1312.1
2017-Jun-03 13:57N 36°49' E 001°52'13712.2
2017-Jun-03 02:43N 36°30' W 000°57'210.8
2017-Jun-03 02:29N 36°30' W 001°00'511.1
2017-Jun-03 02:00N 36°29' W 001°07'19712.3
2017-Jun-02 09:58N 36°01' W 005°09'612.5
2017-Jun-02 09:30N 35°60' W 005°16'612.6
2017-Jun-02 09:00N 35°58' W 005°24'2610.4
2017-Jun-02 06:31N 35°53' W 005°55'010.3
2017-Jun-02 06:30N 35°53' W 005°55'55010.8
2017-May-31 03:26N 29°35' W 013°51'4810.7
2017-May-30 22:56N 29°02' W 014°30'2410.7
2017-May-30 20:42N 28°40' W 014°41'511.0
2017-May-30 20:17N 28°36' W 014°43'310.8
2017-May-30 19:59N 28°33' W 014°44'510.8
2017-May-30 19:30N 28°28' W 014°46'511.0
2017-May-30 19:00N 28°23' W 014°49'611.1
2017-May-30 18:30N 28°18' W 014°51'611.0
2017-May-30 18:00N 28°12' W 014°53'611.5
2017-May-30 17:30N 28°07' W 014°55'611.4
2017-May-30 17:00N 28°02' W 014°57'611.2
2017-May-30 16:30N 27°56' W 014°60'611.3
2017-May-30 16:00N 27°51' W 015°02'611.1
2017-May-30 15:30N 27°46' W 015°04'611.1
2017-May-30 14:58N 27°41' W 015°07'610.7
2017-May-30 14:27N 27°36' W 015°10'  

Dump ship's entire track history